createdAt,value
2023-01-17T00:03:22.115Z,3.22
2023-01-17T00:08:26.300Z,3.20
2023-01-17T00:13:30.464Z,3.19
2023-01-17T00:18:34.615Z,3.18
2023-01-17T00:23:38.769Z,3.15
2023-01-17T00:28:42.941Z,3.15
2023-01-17T00:33:47.104Z,3.13
2023-01-17T00:38:51.247Z,3.11
2023-01-17T00:43:55.393Z,3.07
2023-01-17T00:48:59.581Z,2.99
2023-01-17T00:54:03.767Z,2.92
2023-01-17T00:59:07.945Z,2.91
2023-01-17T01:04:12.093Z,2.91
2023-01-17T01:09:16.264Z,2.92
2023-01-17T01:14:20.410Z,2.92
2023-01-17T01:19:24.602Z,2.90
2023-01-17T01:24:28.732Z,2.89
2023-01-17T01:29:32.875Z,2.85
2023-01-17T01:34:37.090Z,2.83
2023-01-17T01:39:39.331Z,2.77
2023-01-17T01:44:43.528Z,2.68
2023-01-17T01:49:45.801Z,2.59
2023-01-17T01:54:49.936Z,2.42
2023-01-17T01:59:54.117Z,2.41
2023-01-17T02:04:58.312Z,2.38
2023-01-17T02:10:02.454Z,2.33
2023-01-17T02:15:06.623Z,2.26
2023-01-17T02:20:10.763Z,2.19
2023-01-17T02:25:14.948Z,2.16
2023-01-17T02:30:19.112Z,2.31
2023-01-17T02:35:23.245Z,2.36
2023-01-17T02:40:27.443Z,2.41
2023-01-17T02:45:31.629Z,2.40
2023-01-17T02:50:35.763Z,2.33
2023-01-17T02:55:39.921Z,2.27
2023-01-17T03:00:44.273Z,1.72
2023-01-17T03:05:48.263Z,1.27
2023-01-17T03:10:52.389Z,0.96
2023-01-17T03:15:56.598Z,0.82
2023-01-17T03:21:00.770Z,0.77
2023-01-17T03:26:04.923Z,0.64
2023-01-17T03:31:09.070Z,0.55
2023-01-17T03:36:11.327Z,0.54
2023-01-17T03:41:15.515Z,0.57
2023-01-17T03:46:19.687Z,0.60
2023-01-17T03:51:21.941Z,0.61
2023-01-17T03:56:26.136Z,0.67
2023-01-17T04:01:30.344Z,0.69
2023-01-17T04:06:34.415Z,0.72
2023-01-17T04:11:38.633Z,0.77
2023-01-17T04:16:42.825Z,0.77
2023-01-17T04:21:46.953Z,0.81
2023-01-17T04:26:51.107Z,0.88
2023-01-17T04:31:55.296Z,0.89
2023-01-17T04:36:59.431Z,0.94
2023-01-17T04:42:03.653Z,0.94
2023-01-17T04:47:07.790Z,0.95
2023-01-17T04:52:11.937Z,1.00
2023-01-17T04:57:16.088Z,1.04
2023-01-17T05:02:20.356Z,1.08
2023-01-17T05:07:24.408Z,1.07
2023-01-17T05:12:28.578Z,1.10
2023-01-17T05:17:32.771Z,1.10
2023-01-17T05:22:36.932Z,1.05
2023-01-17T05:27:41.118Z,1.04
2023-01-17T05:32:45.259Z,1.02
2023-01-17T05:37:47.520Z,1.00
2023-01-17T05:42:49.822Z,0.97
2023-01-17T05:47:53.985Z,0.94
2023-01-17T05:52:56.257Z,0.94
2023-01-17T05:58:00.409Z,0.95
2023-01-17T06:03:04.581Z,0.97
2023-01-17T06:08:08.761Z,0.98
2023-01-17T06:13:12.898Z,1.00
2023-01-17T06:18:17.074Z,1.00
2023-01-17T06:23:21.269Z,1.02
2023-01-17T06:28:25.422Z,1.03
2023-01-17T06:33:29.562Z,1.00
2023-01-17T06:38:33.723Z,0.96
2023-01-17T06:43:36.021Z,0.95
2023-01-17T06:48:40.162Z,0.91
2023-01-17T06:53:44.363Z,0.91
2023-01-17T06:58:48.514Z,0.92
2023-01-17T07:03:52.740Z,0.95
2023-01-17T07:08:56.814Z,0.94
2023-01-17T07:14:01.022Z,0.96
2023-01-17T07:19:05.144Z,0.96
2023-01-17T07:24:09.304Z,0.97
2023-01-17T07:29:13.479Z,0.96
2023-01-17T07:34:17.653Z,0.93
2023-01-17T07:39:19.937Z,0.93
2023-01-17T07:44:24.074Z,0.93
2023-01-17T07:49:26.348Z,0.97
2023-01-17T07:54:30.579Z,0.95
2023-01-17T07:59:34.688Z,0.95
2023-01-17T08:04:38.865Z,0.96
2023-01-17T08:09:43.080Z,0.96
2023-01-17T08:14:47.197Z,0.95
2023-01-17T08:19:51.363Z,0.98
2023-01-17T08:24:55.516Z,0.98
2023-01-17T08:29:59.728Z,0.99
2023-01-17T08:35:03.871Z,1.00
2023-01-17T08:40:08.019Z,1.04
2023-01-17T08:45:12.215Z,1.07
2023-01-17T08:50:16.354Z,1.12
2023-01-17T08:55:20.511Z,1.20
2023-01-17T09:00:24.699Z,1.32
2023-01-17T09:05:28.873Z,1.54
2023-01-17T09:10:33.009Z,1.43
2023-01-17T09:15:37.213Z,1.34
2023-01-17T09:20:41.321Z,1.39
2023-01-17T09:25:47.372Z,1.42
2023-01-17T09:30:49.754Z,1.45
2023-01-17T09:35:51.965Z,1.46
2023-01-17T09:40:56.124Z,1.51
2023-01-17T09:45:58.456Z,1.57
2023-01-17T09:51:02.564Z,1.65
2023-01-17T09:56:06.747Z,1.69
2023-01-17T10:01:11.006Z,1.71
2023-01-17T10:06:15.070Z,1.87
2023-01-17T10:11:19.234Z,2.10
2023-01-17T10:16:23.416Z,2.00
2023-01-17T10:21:27.613Z,1.94
2023-01-17T10:26:31.732Z,2.03
2023-01-17T10:31:35.874Z,2.05
2023-01-17T10:36:40.069Z,1.95
2023-01-17T10:41:44.234Z,2.00
2023-01-17T10:46:48.360Z,1.98
2023-01-17T10:51:52.537Z,2.02
2023-01-17T10:56:56.683Z,2.21
2023-01-17T11:02:00.928Z,2.27
2023-01-17T11:07:05.009Z,2.18
2023-01-17T11:12:09.202Z,2.44
2023-01-17T11:17:13.340Z,2.70
2023-01-17T11:22:17.537Z,2.66
2023-01-17T11:27:21.707Z,2.63
2023-01-17T11:32:23.921Z,2.64
2023-01-17T11:37:28.158Z,2.67
2023-01-17T11:42:32.307Z,2.67
2023-01-17T11:47:36.444Z,2.69
2023-01-17T11:52:40.622Z,2.75
2023-01-17T11:57:44.781Z,2.77
2023-01-17T12:02:48.932Z,2.81
2023-01-17T12:07:53.104Z,2.99
2023-01-17T12:12:57.311Z,3.22
2023-01-17T12:18:01.479Z,3.46
2023-01-17T12:23:05.609Z,3.43
2023-01-17T12:28:09.788Z,3.46
2023-01-17T12:33:13.907Z,3.39
2023-01-17T12:38:31.851Z,3.34
2023-01-17T12:43:22.250Z,3.29
2023-01-17T12:48:26.440Z,3.51
2023-01-17T12:53:30.572Z,3.77
2023-01-17T12:58:34.799Z,3.81
2023-01-17T13:03:38.906Z,3.86
2023-01-17T13:08:43.061Z,3.99
2023-01-17T13:13:47.256Z,3.83
2023-01-17T13:18:49.523Z,3.78
2023-01-17T13:23:53.673Z,3.67
2023-01-17T13:28:55.948Z,3.52
2023-01-17T13:34:00.156Z,3.46
2023-01-17T13:39:02.433Z,3.46
2023-01-17T13:44:06.561Z,3.30
2023-01-17T13:49:10.725Z,3.18
2023-01-17T13:54:14.881Z,2.88
2023-01-17T13:59:19.069Z,2.70
2023-01-17T14:04:23.201Z,2.51
2023-01-17T14:09:27.368Z,2.41
2023-01-17T14:14:31.541Z,2.31
2023-01-17T14:19:35.714Z,2.36
2023-01-17T14:24:39.860Z,2.49
2023-01-17T14:29:44.029Z,2.49
2023-01-17T14:34:48.200Z,2.50
2023-01-17T14:39:52.380Z,2.48
2023-01-17T14:44:56.541Z,2.39
2023-01-17T14:50:00.721Z,2.38
2023-01-17T14:55:04.862Z,2.35
2023-01-17T15:00:09.019Z,2.27
2023-01-17T15:05:13.235Z,2.24
2023-01-17T15:10:17.343Z,2.10
2023-01-17T15:15:21.540Z,1.90
2023-01-17T15:20:25.667Z,1.81
2023-01-17T15:25:27.980Z,1.79
2023-01-17T15:30:32.222Z,1.73
2023-01-17T15:35:36.270Z,1.48
2023-01-17T15:40:40.435Z,1.25
2023-01-17T15:45:44.668Z,1.02
2023-01-17T15:50:48.788Z,0.97
2023-01-17T15:55:52.986Z,0.91
2023-01-17T16:00:57.333Z,0.75
2023-01-17T16:06:01.289Z,0.53
2023-01-17T16:11:05.477Z,0.48
2023-01-17T16:16:10.089Z,0.46
2023-01-17T16:21:13.782Z,0.36
2023-01-17T16:26:17.911Z,0.27
2023-01-17T16:31:22.198Z,0.16
2023-01-17T16:36:26.287Z,0.04
2023-01-17T16:41:30.460Z,-0.08
2023-01-17T16:46:34.644Z,-0.22
2023-01-17T16:51:38.764Z,-0.38
2023-01-17T16:56:42.917Z,-0.64
2023-01-17T17:01:47.195Z,-0.81
2023-01-17T17:06:51.260Z,-0.88
2023-01-17T17:11:53.523Z,-0.97
2023-01-17T17:16:57.698Z,-1.08
2023-01-17T17:22:00.003Z,-1.15
2023-01-17T17:27:04.172Z,-1.23
2023-01-17T17:32:06.441Z,-1.31
2023-01-17T17:42:14.751Z,-1.41
2023-01-17T17:47:18.962Z,-1.35
2023-01-17T17:52:23.154Z,-1.26
2023-01-17T17:57:27.253Z,-1.27
2023-01-17T18:02:31.433Z,-1.34
2023-01-17T18:07:35.633Z,-1.44
2023-01-17T18:12:39.754Z,-1.47
2023-01-17T18:17:43.943Z,-1.44
2023-01-17T18:22:48.100Z,-1.49
2023-01-17T18:27:52.723Z,-1.62
2023-01-17T18:32:56.418Z,-1.71
2023-01-17T18:38:00.595Z,-1.77
2023-01-17T18:43:04.796Z,-1.82
2023-01-17T18:48:08.907Z,-1.83
2023-01-17T18:53:13.106Z,-1.75
2023-01-17T18:58:17.241Z,-1.67
2023-01-17T19:03:21.423Z,-1.72
2023-01-17T19:08:25.596Z,-1.85
2023-01-17T19:13:29.764Z,-1.95
2023-01-17T19:18:33.961Z,-2.11
2023-01-17T19:23:36.190Z,-2.16
2023-01-17T19:28:40.426Z,-2.15
2023-01-17T19:33:44.557Z,-2.06
2023-01-17T19:38:58.763Z,-1.99
2023-01-17T19:43:50.988Z,-2.07
2023-01-17T19:48:55.182Z,-2.20
2023-01-17T19:53:59.371Z,-2.22
2023-01-17T19:59:03.499Z,-1.98
2023-01-17T20:04:07.664Z,-1.96
2023-01-17T20:09:11.802Z,-2.11
2023-01-17T20:14:16.000Z,-2.25
2023-01-17T20:19:20.180Z,-2.30
2023-01-17T20:24:24.340Z,-2.31
2023-01-17T20:29:28.459Z,-2.30
2023-01-17T20:34:32.649Z,-2.39
2023-01-17T20:39:35.069Z,-2.26
2023-01-17T20:44:39.301Z,-2.28
2023-01-17T20:49:43.427Z,-2.34
2023-01-17T20:54:47.591Z,-2.42
2023-01-17T20:59:51.723Z,-2.43
2023-01-17T21:04:55.928Z,-2.30
2023-01-17T21:10:00.100Z,-2.32
2023-01-17T21:15:04.269Z,-2.38
2023-01-17T21:20:08.448Z,-2.47
2023-01-17T21:25:10.688Z,-2.41
2023-01-17T21:30:14.850Z,-2.62
2023-01-17T21:35:17.152Z,-2.73
2023-01-17T21:40:21.327Z,-2.75
2023-01-17T21:45:25.509Z,-2.76
2023-01-17T21:50:33.491Z,-2.83
2023-01-17T21:55:33.805Z,-2.82
2023-01-17T22:00:37.987Z,-2.86
2023-01-17T22:05:42.131Z,-2.73
2023-01-17T22:10:46.335Z,-2.68
2023-01-17T22:15:50.553Z,-2.76
2023-01-17T22:20:54.661Z,-2.71
2023-01-17T22:25:58.786Z,-2.79
2023-01-17T22:31:02.986Z,-2.79
2023-01-17T22:36:07.191Z,-2.89
2023-01-17T22:41:11.295Z,-3.01
2023-01-17T22:46:15.515Z,-3.02
2023-01-17T22:51:19.688Z,-3.00
2023-01-17T22:56:23.958Z,-3.09
2023-01-17T23:01:27.959Z,-3.20
2023-01-17T23:06:32.178Z,-3.11
2023-01-17T23:11:36.314Z,-2.98
2023-01-17T23:16:40.496Z,-2.98
2023-01-17T23:21:42.760Z,-3.03
2023-01-17T23:26:46.937Z,-2.96
2023-01-17T23:31:49.205Z,-3.06
2023-01-17T23:36:53.347Z,-2.98
2023-01-17T23:41:55.656Z,-2.94
2023-01-17T23:46:59.849Z,-2.92
2023-01-17T23:52:03.973Z,-3.01
2023-01-17T23:57:08.196Z,-3.02
